createdAt,value
2019-05-14T00:03:48.836Z,79.70
2019-05-14T00:08:42.290Z,81.20
2019-05-14T00:13:35.885Z,79.90
2019-05-14T00:18:31.492Z,80.20
2019-05-14T00:23:24.709Z,81.40
2019-05-14T00:28:18.198Z,79.20
2019-05-14T00:33:11.994Z,80.80
2019-05-14T00:38:05.540Z,80.50
2019-05-14T00:42:59.138Z,80.40
2019-05-14T00:47:52.702Z,81.20
2019-05-14T00:52:46.526Z,81.30
2019-05-14T00:57:42.266Z,80.90
2019-05-14T01:02:35.877Z,79.80
2019-05-14T01:07:31.616Z,81.00
2019-05-14T01:12:25.004Z,80.40
2019-05-14T01:17:18.556Z,81.70
2019-05-14T01:22:12.622Z,81.90
2019-05-14T01:27:07.211Z,81.80
2019-05-14T01:32:01.292Z,83.10
2019-05-14T01:36:54.993Z,82.80
2019-05-14T01:41:48.556Z,82.00
2019-05-14T01:46:42.368Z,81.50
2019-05-14T01:51:36.187Z,83.40
2019-05-14T01:56:31.888Z,82.70
2019-05-14T02:01:25.263Z,84.50
2019-05-14T02:06:21.111Z,83.50
2019-05-14T02:11:13.943Z,83.50
2019-05-14T02:16:07.553Z,82.50
2019-05-14T02:21:02.048Z,84.00
2019-05-14T02:25:55.532Z,82.70
2019-05-14T02:30:57.525Z,81.20
2019-05-14T02:35:44.491Z,82.50
2019-05-14T02:40:40.337Z,82.40
2019-05-14T02:45:33.390Z,81.10
2019-05-14T02:50:29.514Z,83.00
2019-05-14T02:55:22.128Z,82.00
2019-05-14T03:00:19.125Z,82.80
2019-05-14T03:05:11.213Z,86.50
2019-05-14T03:10:09.624Z,84.10
2019-05-14T03:15:02.024Z,85.40
2019-05-14T03:19:59.964Z,84.30
2019-05-14T03:24:53.291Z,83.00
2019-05-14T03:29:49.577Z,84.90
2019-05-14T03:34:43.888Z,84.30
2019-05-14T03:39:39.667Z,86.20
2019-05-14T03:44:33.481Z,86.50
2019-05-14T03:49:28.893Z,87.10
2019-05-14T03:54:22.514Z,86.60
2019-05-14T03:59:19.678Z,86.80
2019-05-14T04:04:13.576Z,86.20
2019-05-14T04:09:09.725Z,86.30
2019-05-14T04:14:04.924Z,86.20
2019-05-14T04:19:01.598Z,86.50
2019-05-14T04:23:59.485Z,86.60
2019-05-14T04:28:53.780Z,86.50
2019-05-14T04:33:50.079Z,86.90
2019-05-14T04:38:43.980Z,85.40
2019-05-14T04:43:40.006Z,86.90
2019-05-14T04:48:37.620Z,86.50
2019-05-14T04:53:30.773Z,85.90
2019-05-14T04:58:24.285Z,86.90
2019-05-14T05:03:19.956Z,87.30
2019-05-14T05:08:14.474Z,86.10
2019-05-14T05:13:09.191Z,87.00
2019-05-14T05:18:03.059Z,85.60
2019-05-14T05:22:58.923Z,84.50
2019-05-14T05:27:51.777Z,84.10
2019-05-14T05:32:45.324Z,81.80
2019-05-14T05:37:38.799Z,81.70
2019-05-14T05:42:32.339Z,81.10
2019-05-14T05:47:28.547Z,80.20
2019-05-14T05:52:21.281Z,78.50
2019-05-14T05:57:15.177Z,75.30
2019-05-14T06:02:09.325Z,74.90
2019-05-14T06:07:03.554Z,73.10
2019-05-14T06:11:59.234Z,72.20
2019-05-14T06:16:52.578Z,70.80
2019-05-14T06:21:49.013Z,70.20
2019-05-14T06:26:42.259Z,70.00
2019-05-14T06:31:38.429Z,68.80
2019-05-14T06:36:31.198Z,66.60
2019-05-14T06:41:24.748Z,63.20
2019-05-14T06:46:19.512Z,63.90
2019-05-14T06:51:13.205Z,62.80
2019-05-14T06:56:08.147Z,61.60
2019-05-14T07:01:01.845Z,61.30
2019-05-14T07:05:55.701Z,60.00
2019-05-14T07:10:49.253Z,59.00
2019-05-14T07:15:42.800Z,57.30
2019-05-14T07:20:38.925Z,57.30
2019-05-14T07:25:31.540Z,57.40
2019-05-14T07:30:25.201Z,57.10
2019-05-14T07:35:18.901Z,54.20
2019-05-14T07:40:12.624Z,55.30
2019-05-14T07:45:06.749Z,53.30
2019-05-14T07:50:00.302Z,49.90
2019-05-14T07:54:53.922Z,50.80
2019-05-14T07:59:48.378Z,53.30
2019-05-14T08:04:42.480Z,50.70
2019-05-14T08:09:35.981Z,47.10
2019-05-14T08:14:39.249Z,48.00
2019-05-14T08:19:27.849Z,46.20
2019-05-14T08:24:26.646Z,51.50
2019-05-14T08:29:18.077Z,45.60
2019-05-14T08:34:11.477Z,50.00
2019-05-14T08:39:08.791Z,49.00
2019-05-14T08:44:02.086Z,46.00
2019-05-14T08:48:58.385Z,44.10
2019-05-14T08:53:50.833Z,44.70
2019-05-14T08:58:44.427Z,43.70
2019-05-14T09:03:39.297Z,41.50
2019-05-14T09:08:33.591Z,43.70
2019-05-14T09:13:28.920Z,40.20
2019-05-14T09:18:22.434Z,37.80
2019-05-14T09:23:16.014Z,37.00
2019-05-14T09:28:09.892Z,36.00
2019-05-14T09:33:03.441Z,36.70
2019-05-14T09:37:59.185Z,34.40
2019-05-14T09:42:52.515Z,34.80
2019-05-14T09:47:49.997Z,33.90
2019-05-14T09:52:41.517Z,33.70
2019-05-14T09:57:35.077Z,37.10
2019-05-14T10:02:28.707Z,33.50
2019-05-14T10:07:22.538Z,33.90
2019-05-14T10:12:16.116Z,29.20
2019-05-14T10:17:10.025Z,28.30
2019-05-14T10:22:03.587Z,28.50
2019-05-14T10:26:58.547Z,31.00
2019-05-14T10:31:52.549Z,26.30
2019-05-14T10:36:52.088Z,27.90
2019-05-14T10:41:51.232Z,28.30
2019-05-14T10:46:45.127Z,29.00
2019-05-14T10:51:39.010Z,27.70
2019-05-14T10:56:53.164Z,26.60
2019-05-14T11:01:53.091Z,26.50
2019-05-14T11:12:19.295Z,28.80
2019-05-14T11:17:57.608Z,25.90
2019-05-14T11:28:45.067Z,26.50
2019-05-14T11:33:45.611Z,25.30
2019-05-14T11:39:28.766Z,27.70
2019-05-14T11:45:01.118Z,25.60
2019-05-14T11:50:10.177Z,26.60
2019-05-14T11:55:05.486Z,25.50
2019-05-14T11:59:59.238Z,26.00
2019-05-14T12:04:53.109Z,24.90
2019-05-14T12:09:48.360Z,25.50
2019-05-14T12:14:41.990Z,25.50
2019-05-14T12:19:35.872Z,23.40
2019-05-14T12:24:29.546Z,24.60
2019-05-14T12:29:23.163Z,24.40
2019-05-14T12:34:18.526Z,25.10
2019-05-14T12:39:13.513Z,23.80
2019-05-14T12:44:09.373Z,24.10
2019-05-14T12:49:02.482Z,25.50
2019-05-14T12:53:58.324Z,23.00
2019-05-14T12:58:51.560Z,23.80
2019-05-14T13:03:45.441Z,22.90
2019-05-14T13:08:40.199Z,26.20
2019-05-14T13:13:42.322Z,22.20
2019-05-14T13:18:33.070Z,25.00
2019-05-14T13:23:29.033Z,25.40
2019-05-14T13:28:21.964Z,22.00
2019-05-14T13:33:21.737Z,22.90
2019-05-14T13:38:15.376Z,24.10
2019-05-14T13:43:09.842Z,25.30
2019-05-14T13:48:04.522Z,24.40
2019-05-14T13:53:06.928Z,24.40
2019-05-14T13:57:54.460Z,23.00
2019-05-14T14:02:50.209Z,21.60
2019-05-14T14:07:48.543Z,23.30
2019-05-14T14:12:42.325Z,23.90
2019-05-14T14:17:38.782Z,24.30
2019-05-14T14:22:31.123Z,25.40
2019-05-14T14:27:24.753Z,25.30
2019-05-14T14:32:18.926Z,25.70
2019-05-14T14:37:15.665Z,25.60
2019-05-14T14:42:09.234Z,27.30
2019-05-14T14:47:23.785Z,28.40
2019-05-14T14:52:19.973Z,27.70
2019-05-14T14:57:13.892Z,28.20
2019-05-14T15:02:10.199Z,29.70
2019-05-14T15:07:02.920Z,28.60
2019-05-14T15:23:09.869Z,30.70
2019-05-14T15:28:02.296Z,31.00
2019-05-14T15:32:55.839Z,32.10
2019-05-14T15:37:49.328Z,29.70
2019-05-14T15:42:44.792Z,32.10
2019-05-14T15:47:39.044Z,31.00
2019-05-14T15:52:32.830Z,30.10
2019-05-14T15:57:28.791Z,31.00
2019-05-14T16:02:21.613Z,32.80
2019-05-14T16:07:15.452Z,31.60
2019-05-14T16:12:09.629Z,30.00
2019-05-14T16:17:03.306Z,33.60
2019-05-14T16:21:58.631Z,31.30
2019-05-14T16:26:51.984Z,31.10
2019-05-14T16:31:45.777Z,34.30
2019-05-14T16:36:41.344Z,31.80
2019-05-14T16:41:34.994Z,33.20
2019-05-14T16:46:29.020Z,39.10
2019-05-14T16:51:22.872Z,40.20
2019-05-14T16:56:19.049Z,44.00
2019-05-14T17:01:11.928Z,44.20
2019-05-14T17:06:05.612Z,45.70
2019-05-14T17:10:59.153Z,46.40
2019-05-14T17:15:52.640Z,46.70
2019-05-14T17:20:48.623Z,47.70
2019-05-14T17:25:41.421Z,47.90
2019-05-14T17:30:34.970Z,49.00
2019-05-14T17:35:29.798Z,48.80
2019-05-14T17:40:24.728Z,48.00
2019-05-14T17:45:19.217Z,48.50
2019-05-14T17:50:12.863Z,48.00
2019-05-14T17:55:11.545Z,47.60
2019-05-14T18:00:01.911Z,48.50
2019-05-14T18:04:57.057Z,49.00
2019-05-14T18:09:50.632Z,49.20
2019-05-14T18:14:44.165Z,49.80
2019-05-14T18:19:38.119Z,50.90
2019-05-14T18:24:31.932Z,50.80
2019-05-14T18:29:25.464Z,51.00
2019-05-14T18:34:19.040Z,50.90
2019-05-14T18:39:12.866Z,53.10
2019-05-14T18:44:08.418Z,51.40
2019-05-14T18:49:02.145Z,51.40
2019-05-14T18:53:58.483Z,52.40
2019-05-14T18:58:52.130Z,52.80
2019-05-14T19:03:45.736Z,53.20
2019-05-14T19:08:39.580Z,53.60
2019-05-14T19:13:33.271Z,53.80
2019-05-14T19:18:28.673Z,54.20
2019-05-14T19:23:22.323Z,54.50
2019-05-14T19:28:15.919Z,56.00
2019-05-14T19:33:09.495Z,55.60
2019-05-14T19:38:03.561Z,56.10
2019-05-14T19:42:57.099Z,56.30
2019-05-14T19:47:50.646Z,56.30
2019-05-14T19:52:44.120Z,57.70
2019-05-14T19:57:38.422Z,57.00
2019-05-14T20:02:32.145Z,57.10
2019-05-14T20:07:27.897Z,58.00
2019-05-14T20:12:21.205Z,57.30
2019-05-14T20:17:14.830Z,57.60
2019-05-14T20:22:08.664Z,58.00
2019-05-14T20:27:07.818Z,59.00
2019-05-14T20:32:01.207Z,58.70
2019-05-14T20:36:52.520Z,59.20
2019-05-14T20:41:46.337Z,58.40
2019-05-14T20:46:39.884Z,58.90
2019-05-14T20:51:33.419Z,59.00
2019-05-14T20:56:28.453Z,59.70
2019-05-14T21:01:22.170Z,60.90
2019-05-14T21:06:15.711Z,61.40
2019-05-14T21:11:09.188Z,61.40
2019-05-14T21:16:03.001Z,61.80
2019-05-14T21:20:56.475Z,62.60
2019-05-14T21:25:50.016Z,62.90
2019-05-14T21:30:43.501Z,63.10
2019-05-14T21:35:39.007Z,65.30
2019-05-14T21:40:32.760Z,64.80
2019-05-14T21:45:26.241Z,65.70
2019-05-14T21:50:19.776Z,65.40
2019-05-14T21:55:13.452Z,66.70
2019-05-14T22:00:18.444Z,67.60
2019-05-14T22:05:11.353Z,69.30
2019-05-14T22:10:07.235Z,69.20
2019-05-14T22:15:00.708Z,69.80
2019-05-14T22:19:54.180Z,69.90
2019-05-14T22:24:48.904Z,70.10
2019-05-14T22:29:42.871Z,70.60
2019-05-14T22:34:38.398Z,70.70
2019-05-14T22:39:31.981Z,72.10
2019-05-14T22:44:25.584Z,71.70
2019-05-14T22:49:19.436Z,71.70
2019-05-14T22:54:12.969Z,73.00
2019-05-14T22:59:06.468Z,73.40
2019-05-14T23:04:00.004Z,74.50
2019-05-14T23:08:53.568Z,73.10
2019-05-14T23:13:48.786Z,73.40
2019-05-14T23:18:42.537Z,74.60
2019-05-14T23:23:36.060Z,74.40
2019-05-14T23:28:41.852Z,74.20
2019-05-14T23:33:24.750Z,74.80
2019-05-14T23:38:19.037Z,74.50
2019-05-14T23:43:12.727Z,75.00
2019-05-14T23:48:09.211Z,76.20
2019-05-14T23:53:02.068Z,76.50
2019-05-14T23:57:55.537Z,76.80
